sensor_id;sensor_type;location;lat;lon;timestamp;P1;durP1;ratioP1;P2;durP2;ratioP2
75316;SDS011;63913;51.492;10.368;2023-04-25T00:00:31;2.20;;;1.17;;
75316;SDS011;63913;51.492;10.368;2023-04-25T00:02:56;4.22;;;1.60;;
75316;SDS011;63913;51.492;10.368;2023-04-25T00:05:22;4.05;;;1.80;;
75316;SDS011;63913;51.492;10.368;2023-04-25T00:07:49;2.78;;;1.48;;
75316;SDS011;63913;51.492;10.368;2023-04-25T00:10:14;3.60;;;1.70;;
75316;SDS011;63913;51.492;10.368;2023-04-25T00:12:40;4.88;;;1.92;;
75316;SDS011;63913;51.492;10.368;2023-04-25T00:15:06;5.10;;;1.50;;
75316;SDS011;63913;51.492;10.368;2023-04-25T00:17:32;3.70;;;1.67;;
75316;SDS011;63913;51.492;10.368;2023-04-25T00:19:58;4.75;;;2.15;;
75316;SDS011;63913;51.492;10.368;2023-04-25T00:22:23;3.67;;;2.00;;
75316;SDS011;63913;51.492;10.368;2023-04-25T00:24:49;2.88;;;1.75;;
75316;SDS011;63913;51.492;10.368;2023-04-25T00:27:15;3.10;;;1.70;;
75316;SDS011;63913;51.492;10.368;2023-04-25T00:29:40;6.53;;;1.92;;
75316;SDS011;63913;51.492;10.368;2023-04-25T00:32:05;3.88;;;1.70;;
75316;SDS011;63913;51.492;10.368;2023-04-25T00:34:31;3.85;;;1.83;;
75316;SDS011;63913;51.492;10.368;2023-04-25T00:36:56;6.30;;;1.87;;
75316;SDS011;63913;51.492;10.368;2023-04-25T00:39:22;6.68;;;2.15;;
75316;SDS011;63913;51.492;10.368;2023-04-25T00:41:47;2.85;;;1.77;;
75316;SDS011;63913;51.492;10.368;2023-04-25T00:44:13;3.80;;;2.00;;
75316;SDS011;63913;51.492;10.368;2023-04-25T00:46:42;6.63;;;2.00;;
75316;SDS011;63913;51.492;10.368;2023-04-25T00:49:07;6.93;;;2.58;;
75316;SDS011;63913;51.492;10.368;2023-04-25T00:51:32;4.40;;;2.00;;
75316;SDS011;63913;51.492;10.368;2023-04-25T00:53:58;5.30;;;2.08;;
75316;SDS011;63913;51.492;10.368;2023-04-25T00:56:24;5.93;;;2.97;;
75316;SDS011;63913;51.492;10.368;2023-04-25T00:58:51;6.00;;;2.78;;
75316;SDS011;63913;51.492;10.368;2023-04-25T01:01:19;5.72;;;2.47;;
75316;SDS011;63913;51.492;10.368;2023-04-25T01:03:45;5.45;;;2.70;;
75316;SDS011;63913;51.492;10.368;2023-04-25T01:06:11;7.07;;;3.05;;
75316;SDS011;63913;51.492;10.368;2023-04-25T01:08:37;9.65;;;3.08;;
75316;SDS011;63913;51.492;10.368;2023-04-25T01:11:04;5.10;;;2.80;;
75316;SDS011;63913;51.492;10.368;2023-04-25T01:13:29;10.38;;;3.17;;
75316;SDS011;63913;51.492;10.368;2023-04-25T01:15:56;5.97;;;2.50;;
75316;SDS011;63913;51.492;10.368;2023-04-25T01:18:22;7.30;;;2.60;;
75316;SDS011;63913;51.492;10.368;2023-04-25T01:20:49;6.95;;;3.00;;
75316;SDS011;63913;51.492;10.368;2023-04-25T01:23:17;10.30;;;3.47;;
75316;SDS011;63913;51.492;10.368;2023-04-25T01:25:44;7.95;;;3.17;;
75316;SDS011;63913;51.492;10.368;2023-04-25T01:28:10;7.28;;;2.92;;
75316;SDS011;63913;51.492;10.368;2023-04-25T01:30:36;9.13;;;3.85;;
75316;SDS011;63913;51.492;10.368;2023-04-25T01:33:04;7.28;;;3.53;;
75316;SDS011;63913;51.492;10.368;2023-04-25T01:35:30;6.72;;;3.03;;
75316;SDS011;63913;51.492;10.368;2023-04-25T01:37:57;8.48;;;3.20;;
75316;SDS011;63913;51.492;10.368;2023-04-25T01:40:23;6.07;;;3.05;;
75316;SDS011;63913;51.492;10.368;2023-04-25T01:42:49;8.93;;;3.35;;
75316;SDS011;63913;51.492;10.368;2023-04-25T01:45:17;7.22;;;3.70;;
75316;SDS011;63913;51.492;10.368;2023-04-25T01:47:42;6.65;;;3.33;;
75316;SDS011;63913;51.492;10.368;2023-04-25T01:50:11;7.88;;;3.58;;
75316;SDS011;63913;51.492;10.368;2023-04-25T01:52:37;6.88;;;3.42;;
75316;SDS011;63913;51.492;10.368;2023-04-25T01:55:03;6.95;;;3.40;;
75316;SDS011;63913;51.492;10.368;2023-04-25T01:57:31;8.18;;;3.72;;
75316;SDS011;63913;51.492;10.368;2023-04-25T01:59:58;9.68;;;4.00;;
75316;SDS011;63913;51.492;10.368;2023-04-25T02:02:38;6.38;;;3.50;;
75316;SDS011;63913;51.492;10.368;2023-04-25T02:05:05;8.98;;;3.65;;
75316;SDS011;63913;51.492;10.368;2023-04-25T02:07:34;8.30;;;4.60;;
75316;SDS011;63913;51.492;10.368;2023-04-25T02:10:00;9.70;;;4.15;;
75316;SDS011;63913;51.492;10.368;2023-04-25T02:12:27;6.53;;;3.65;;
75316;SDS011;63913;51.492;10.368;2023-04-25T02:15:05;8.82;;;3.88;;
75316;SDS011;63913;51.492;10.368;2023-04-25T02:17:51;7.85;;;4.30;;
75316;SDS011;63913;51.492;10.368;2023-04-25T02:20:23;10.50;;;3.90;;
75316;SDS011;63913;51.492;10.368;2023-04-25T02:22:49;7.60;;;4.18;;
75316;SDS011;63913;51.492;10.368;2023-04-25T02:25:16;7.80;;;3.78;;
75316;SDS011;63913;51.492;10.368;2023-04-25T02:27:42;6.97;;;3.47;;
75316;SDS011;63913;51.492;10.368;2023-04-25T02:30:08;11.07;;;3.92;;
75316;SDS011;63913;51.492;10.368;2023-04-25T02:32:34;9.35;;;3.40;;
75316;SDS011;63913;51.492;10.368;2023-04-25T02:34:59;10.23;;;3.67;;
75316;SDS011;63913;51.492;10.368;2023-04-25T02:37:29;9.93;;;3.08;;
75316;SDS011;63913;51.492;10.368;2023-04-25T02:39:55;9.45;;;3.03;;
75316;SDS011;63913;51.492;10.368;2023-04-25T02:42:20;7.68;;;3.55;;
75316;SDS011;63913;51.492;10.368;2023-04-25T02:44:46;6.68;;;3.13;;
75316;SDS011;63913;51.492;10.368;2023-04-25T02:47:11;7.43;;;3.28;;
75316;SDS011;63913;51.492;10.368;2023-04-25T02:49:36;7.32;;;3.42;;
75316;SDS011;63913;51.492;10.368;2023-04-25T02:52:02;8.65;;;3.60;;
75316;SDS011;63913;51.492;10.368;2023-04-25T02:54:27;8.30;;;3.35;;
75316;SDS011;63913;51.492;10.368;2023-04-25T02:56:54;6.05;;;3.10;;
75316;SDS011;63913;51.492;10.368;2023-04-25T03:01:50;6.33;;;2.80;;
75316;SDS011;63913;51.492;10.368;2023-04-25T03:04:15;7.10;;;3.35;;
75316;SDS011;63913;51.492;10.368;2023-04-25T03:06:40;10.43;;;3.42;;
75316;SDS011;63913;51.492;10.368;2023-04-25T03:09:06;9.13;;;3.97;;
75316;SDS011;63913;51.492;10.368;2023-04-25T03:11:31;8.50;;;3.50;;
75316;SDS011;63913;51.492;10.368;2023-04-25T03:13:57;8.45;;;3.60;;
75316;SDS011;63913;51.492;10.368;2023-04-25T03:16:23;7.30;;;3.70;;
75316;SDS011;63913;51.492;10.368;2023-04-25T03:18:48;8.15;;;4.18;;
75316;SDS011;63913;51.492;10.368;2023-04-25T03:21:15;9.00;;;2.95;;
75316;SDS011;63913;51.492;10.368;2023-04-25T03:23:41;9.45;;;3.40;;
75316;SDS011;63913;51.492;10.368;2023-04-25T03:26:06;10.13;;;4.20;;
75316;SDS011;63913;51.492;10.368;2023-04-25T03:28:32;6.47;;;3.50;;
75316;SDS011;63913;51.492;10.368;2023-04-25T03:30:57;6.15;;;3.10;;
75316;SDS011;63913;51.492;10.368;2023-04-25T03:33:23;8.75;;;2.78;;
75316;SDS011;63913;51.492;10.368;2023-04-25T03:35:48;8.18;;;3.63;;
75316;SDS011;63913;51.492;10.368;2023-04-25T03:38:15;6.43;;;3.25;;
75316;SDS011;63913;51.492;10.368;2023-04-25T03:40:40;12.55;;;3.97;;
75316;SDS011;63913;51.492;10.368;2023-04-25T03:43:19;8.63;;;3.33;;
75316;SDS011;63913;51.492;10.368;2023-04-25T03:45:51;8.55;;;3.30;;
75316;SDS011;63913;51.492;10.368;2023-04-25T03:48:19;7.40;;;3.55;;
75316;SDS011;63913;51.492;10.368;2023-04-25T03:50:47;7.03;;;3.30;;
75316;SDS011;63913;51.492;10.368;2023-04-25T03:53:12;8.40;;;3.38;;
75316;SDS011;63913;51.492;10.368;2023-04-25T03:56:06;6.55;;;3.35;;
75316;SDS011;63913;51.492;10.368;2023-04-25T03:58:34;12.05;;;3.95;;
75316;SDS011;63913;51.492;10.368;2023-04-25T04:01:00;7.03;;;3.30;;
75316;SDS011;63913;51.492;10.368;2023-04-25T04:03:27;10.77;;;3.17;;
75316;SDS011;63913;51.492;10.368;2023-04-25T04:05:53;17.75;;;3.78;;
75316;SDS011;63913;51.492;10.368;2023-04-25T04:08:18;6.63;;;3.00;;
75316;SDS011;63913;51.492;10.368;2023-04-25T04:10:43;8.93;;;3.20;;
75316;SDS011;63913;51.492;10.368;2023-04-25T04:13:09;9.88;;;3.20;;
75316;SDS011;63913;51.492;10.368;2023-04-25T04:15:35;7.45;;;3.35;;
75316;SDS011;63913;51.492;10.368;2023-04-25T04:18:00;8.82;;;4.03;;
75316;SDS011;63913;51.492;10.368;2023-04-25T04:20:28;7.65;;;3.50;;
75316;SDS011;63913;51.492;10.368;2023-04-25T04:22:55;11.13;;;5.03;;
75316;SDS011;63913;51.492;10.368;2023-04-25T04:25:21;19.67;;;7.30;;
75316;SDS011;63913;51.492;10.368;2023-04-25T04:28:03;10.57;;;3.72;;
75316;SDS011;63913;51.492;10.368;2023-04-25T04:30:40;6.75;;;3.63;;
75316;SDS011;63913;51.492;10.368;2023-04-25T04:33:07;11.77;;;3.42;;
75316;SDS011;63913;51.492;10.368;2023-04-25T04:35:33;6.05;;;2.67;;
75316;SDS011;63913;51.492;10.368;2023-04-25T04:37:59;9.75;;;3.80;;
75316;SDS011;63913;51.492;10.368;2023-04-25T04:40:28;9.70;;;3.75;;
75316;SDS011;63913;51.492;10.368;2023-04-25T04:43:16;11.25;;;3.50;;
75316;SDS011;63913;51.492;10.368;2023-04-25T04:45:53;8.23;;;3.75;;
75316;SDS011;63913;51.492;10.368;2023-04-25T04:48:32;10.77;;;3.53;;
75316;SDS011;63913;51.492;10.368;2023-04-25T04:51:17;8.88;;;3.42;;
75316;SDS011;63913;51.492;10.368;2023-04-25T04:54:01;9.80;;;3.63;;
75316;SDS011;63913;51.492;10.368;2023-04-25T04:56:38;8.57;;;3.60;;
75316;SDS011;63913;51.492;10.368;2023-04-25T04:59:15;8.52;;;4.18;;
75316;SDS011;63913;51.492;10.368;2023-04-25T05:02:16;8.45;;;3.42;;
75316;SDS011;63913;51.492;10.368;2023-04-25T05:05:04;8.27;;;3.90;;
75316;SDS011;63913;51.492;10.368;2023-04-25T05:07:49;9.27;;;4.43;;
75316;SDS011;63913;51.492;10.368;2023-04-25T05:10:37;8.70;;;3.72;;
75316;SDS011;63913;51.492;10.368;2023-04-25T05:13:21;9.00;;;4.20;;
75316;SDS011;63913;51.492;10.368;2023-04-25T05:16:12;8.25;;;4.10;;
75316;SDS011;63913;51.492;10.368;2023-04-25T05:18:55;13.80;;;4.45;;
75316;SDS011;63913;51.492;10.368;2023-04-25T05:21:41;10.60;;;3.85;;
75316;SDS011;63913;51.492;10.368;2023-04-25T05:24:34;11.82;;;4.82;;
75316;SDS011;63913;51.492;10.368;2023-04-25T05:27:13;11.52;;;4.05;;
75316;SDS011;63913;51.492;10.368;2023-04-25T05:29:58;8.77;;;4.00;;
75316;SDS011;63913;51.492;10.368;2023-04-25T05:32:45;6.38;;;3.58;;
75316;SDS011;63913;51.492;10.368;2023-04-25T05:35:12;9.02;;;3.75;;
75316;SDS011;63913;51.492;10.368;2023-04-25T05:37:43;10.77;;;4.25;;
75316;SDS011;63913;51.492;10.368;2023-04-25T05:40:11;9.57;;;4.35;;
75316;SDS011;63913;51.492;10.368;2023-04-25T05:42:42;12.50;;;4.00;;
75316;SDS011;63913;51.492;10.368;2023-04-25T05:45:37;15.48;;;4.55;;
75316;SDS011;63913;51.492;10.368;2023-04-25T05:48:03;11.18;;;4.22;;
75316;SDS011;63913;51.492;10.368;2023-04-25T05:50:51;9.43;;;4.15;;
75316;SDS011;63913;51.492;10.368;2023-04-25T05:53:36;9.70;;;3.95;;
75316;SDS011;63913;51.492;10.368;2023-04-25T05:56:01;10.32;;;4.13;;
75316;SDS011;63913;51.492;10.368;2023-04-25T05:58:28;14.18;;;4.70;;
75316;SDS011;63913;51.492;10.368;2023-04-25T06:00:55;9.13;;;4.20;;
75316;SDS011;63913;51.492;10.368;2023-04-25T06:03:21;9.23;;;4.40;;
75316;SDS011;63913;51.492;10.368;2023-04-25T06:05:48;12.57;;;3.85;;
75316;SDS011;63913;51.492;10.368;2023-04-25T06:08:15;11.55;;;4.28;;
75316;SDS011;63913;51.492;10.368;2023-04-25T06:10:40;10.73;;;4.20;;
75316;SDS011;63913;51.492;10.368;2023-04-25T06:13:06;10.02;;;4.78;;
75316;SDS011;63913;51.492;10.368;2023-04-25T06:15:33;9.50;;;4.18;;
75316;SDS011;63913;51.492;10.368;2023-04-25T06:17:59;8.65;;;3.95;;
75316;SDS011;63913;51.492;10.368;2023-04-25T06:20:28;9.73;;;4.30;;
75316;SDS011;63913;51.492;10.368;2023-04-25T06:22:56;7.35;;;4.38;;
75316;SDS011;63913;51.492;10.368;2023-04-25T06:25:35;5.85;;;2.95;;
75316;SDS011;63913;51.492;10.368;2023-04-25T06:28:01;7.70;;;3.90;;
75316;SDS011;63913;51.492;10.368;2023-04-25T06:30:26;6.60;;;3.80;;
75316;SDS011;63913;51.492;10.368;2023-04-25T06:32:57;7.85;;;2.95;;
75316;SDS011;63913;51.492;10.368;2023-04-25T06:35:22;6.63;;;3.17;;
75316;SDS011;63913;51.492;10.368;2023-04-25T06:37:48;6.40;;;2.97;;
75316;SDS011;63913;51.492;10.368;2023-04-25T06:40:13;8.57;;;2.97;;
75316;SDS011;63913;51.492;10.368;2023-04-25T06:42:40;6.45;;;3.33;;
75316;SDS011;63913;51.492;10.368;2023-04-25T06:45:34;11.68;;;4.10;;
75316;SDS011;63913;51.492;10.368;2023-04-25T06:48:00;7.55;;;3.45;;
75316;SDS011;63913;51.492;10.368;2023-04-25T06:50:25;7.97;;;3.08;;
75316;SDS011;63913;51.492;10.368;2023-04-25T06:52:50;7.07;;;2.72;;
75316;SDS011;63913;51.492;10.368;2023-04-25T06:55:17;6.20;;;2.67;;
75316;SDS011;63913;51.492;10.368;2023-04-25T06:58:01;6.85;;;2.20;;
75316;SDS011;63913;51.492;10.368;2023-04-25T07:00:46;8.68;;;2.50;;
75316;SDS011;63913;51.492;10.368;2023-04-25T07:03:12;6.75;;;2.22;;
75316;SDS011;63913;51.492;10.368;2023-04-25T07:05:38;7.85;;;2.30;;
75316;SDS011;63913;51.492;10.368;2023-04-25T07:08:03;8.32;;;2.65;;
75316;SDS011;63913;51.492;10.368;2023-04-25T07:10:28;6.90;;;2.20;;
75316;SDS011;63913;51.492;10.368;2023-04-25T07:12:54;9.65;;;2.85;;
75316;SDS011;63913;51.492;10.368;2023-04-25T07:15:19;8.35;;;3.22;;
75316;SDS011;63913;51.492;10.368;2023-04-25T07:17:47;6.70;;;2.63;;
75316;SDS011;63913;51.492;10.368;2023-04-25T07:20:12;9.63;;;2.42;;
75316;SDS011;63913;51.492;10.368;2023-04-25T07:22:38;8.30;;;2.75;;
75316;SDS011;63913;51.492;10.368;2023-04-25T07:25:04;7.68;;;2.28;;
75316;SDS011;63913;51.492;10.368;2023-04-25T07:27:30;10.77;;;2.45;;
75316;SDS011;63913;51.492;10.368;2023-04-25T07:30:09;18.25;;;2.50;;
75316;SDS011;63913;51.492;10.368;2023-04-25T07:32:38;12.90;;;2.55;;
75316;SDS011;63913;51.492;10.368;2023-04-25T07:35:03;9.48;;;2.50;;
75316;SDS011;63913;51.492;10.368;2023-04-25T07:37:29;13.27;;;2.03;;
75316;SDS011;63913;51.492;10.368;2023-04-25T07:40:06;15.93;;;2.65;;
75316;SDS011;63913;51.492;10.368;2023-04-25T07:42:35;10.00;;;2.10;;
75316;SDS011;63913;51.492;10.368;2023-04-25T07:45:01;9.50;;;1.95;;
75316;SDS011;63913;51.492;10.368;2023-04-25T07:47:28;8.10;;;1.92;;
75316;SDS011;63913;51.492;10.368;2023-04-25T07:49:53;12.52;;;2.13;;
75316;SDS011;63913;51.492;10.368;2023-04-25T07:52:20;8.60;;;2.00;;
75316;SDS011;63913;51.492;10.368;2023-04-25T07:54:51;7.90;;;1.52;;
75316;SDS011;63913;51.492;10.368;2023-04-25T07:57:22;8.52;;;1.90;;
75316;SDS011;63913;51.492;10.368;2023-04-25T07:59:50;9.40;;;2.00;;
75316;SDS011;63913;51.492;10.368;2023-04-25T08:02:15;6.07;;;2.17;;
75316;SDS011;63913;51.492;10.368;2023-04-25T08:04:41;8.38;;;2.15;;
75316;SDS011;63913;51.492;10.368;2023-04-25T08:07:08;6.78;;;2.08;;
75316;SDS011;63913;51.492;10.368;2023-04-25T08:09:47;11.95;;;3.15;;
75316;SDS011;63913;51.492;10.368;2023-04-25T08:12:21;10.20;;;1.92;;
75316;SDS011;63913;51.492;10.368;2023-04-25T08:14:46;4.35;;;1.77;;
75316;SDS011;63913;51.492;10.368;2023-04-25T08:17:12;7.40;;;1.93;;
75316;SDS011;63913;51.492;10.368;2023-04-25T08:19:40;7.82;;;2.33;;
75316;SDS011;63913;51.492;10.368;2023-04-25T08:22:09;10.95;;;2.58;;
75316;SDS011;63913;51.492;10.368;2023-04-25T08:24:46;10.10;;;1.83;;
75316;SDS011;63913;51.492;10.368;2023-04-25T08:27:12;5.90;;;1.90;;
75316;SDS011;63913;51.492;10.368;2023-04-25T08:29:37;14.55;;;2.20;;
75316;SDS011;63913;51.492;10.368;2023-04-25T08:32:03;9.50;;;1.95;;
75316;SDS011;63913;51.492;10.368;2023-04-25T08:34:29;7.95;;;3.15;;
75316;SDS011;63913;51.492;10.368;2023-04-25T08:36:56;12.02;;;2.50;;
75316;SDS011;63913;51.492;10.368;2023-04-25T08:39:28;15.38;;;3.17;;
75316;SDS011;63913;51.492;10.368;2023-04-25T08:42:12;4.38;;;1.50;;
75316;SDS011;63913;51.492;10.368;2023-04-25T08:44:39;8.38;;;2.25;;
75316;SDS011;63913;51.492;10.368;2023-04-25T08:47:05;5.97;;;2.00;;
75316;SDS011;63913;51.492;10.368;2023-04-25T08:49:36;8.35;;;1.98;;
75316;SDS011;63913;51.492;10.368;2023-04-25T08:52:04;3.97;;;1.90;;
75316;SDS011;63913;51.492;10.368;2023-04-25T08:54:31;7.18;;;1.90;;
75316;SDS011;63913;51.492;10.368;2023-04-25T08:57:02;8.65;;;2.45;;
75316;SDS011;63913;51.492;10.368;2023-04-25T08:59:29;4.97;;;1.80;;
75316;SDS011;63913;51.492;10.368;2023-04-25T09:01:56;8.23;;;2.20;;
75316;SDS011;63913;51.492;10.368;2023-04-25T09:04:23;7.13;;;2.00;;
75316;SDS011;63913;51.492;10.368;2023-04-25T09:06:48;8.98;;;2.13;;
75316;SDS011;63913;51.492;10.368;2023-04-25T09:09:14;7.20;;;2.10;;
75316;SDS011;63913;51.492;10.368;2023-04-25T09:11:39;6.25;;;2.05;;
75316;SDS011;63913;51.492;10.368;2023-04-25T09:14:21;11.10;;;2.47;;
75316;SDS011;63913;51.492;10.368;2023-04-25T09:17:03;11.88;;;2.63;;
75316;SDS011;63913;51.492;10.368;2023-04-25T09:19:38;9.88;;;2.00;;
75316;SDS011;63913;51.492;10.368;2023-04-25T09:22:14;8.82;;;2.17;;
75316;SDS011;63913;51.492;10.368;2023-04-25T09:24:40;10.30;;;2.03;;
75316;SDS011;63913;51.492;10.368;2023-04-25T09:27:11;14.63;;;2.05;;
75316;SDS011;63913;51.492;10.368;2023-04-25T09:29:42;6.72;;;1.65;;
75316;SDS011;63913;51.492;10.368;2023-04-25T09:32:17;5.28;;;1.65;;
75316;SDS011;63913;51.492;10.368;2023-04-25T09:34:46;3.90;;;1.50;;
75316;SDS011;63913;51.492;10.368;2023-04-25T09:40:08;4.95;;;1.70;;
75316;SDS011;63913;51.492;10.368;2023-04-25T09:42:48;6.40;;;1.45;;
75316;SDS011;63913;51.492;10.368;2023-04-25T09:45:14;4.78;;;1.70;;
75316;SDS011;63913;51.492;10.368;2023-04-25T09:47:41;9.20;;;1.90;;
75316;SDS011;63913;51.492;10.368;2023-04-25T09:50:13;3.00;;;1.60;;
75316;SDS011;63913;51.492;10.368;2023-04-25T09:52:42;9.27;;;1.92;;
75316;SDS011;63913;51.492;10.368;2023-04-25T09:55:18;5.70;;;1.52;;
75316;SDS011;63913;51.492;10.368;2023-04-25T09:57:45;6.80;;;1.70;;
75316;SDS011;63913;51.492;10.368;2023-04-25T10:00:15;4.88;;;1.98;;
75316;SDS011;63913;51.492;10.368;2023-04-25T10:02:42;4.90;;;1.67;;
75316;SDS011;63913;51.492;10.368;2023-04-25T10:05:16;3.50;;;1.60;;
75316;SDS011;63913;51.492;10.368;2023-04-25T10:07:42;6.63;;;1.73;;
75316;SDS011;63913;51.492;10.368;2023-04-25T10:10:13;4.70;;;1.65;;
75316;SDS011;63913;51.492;10.368;2023-04-25T10:12:39;4.00;;;1.65;;
75316;SDS011;63913;51.492;10.368;2023-04-25T10:15:05;3.00;;;1.20;;
75316;SDS011;63913;51.492;10.368;2023-04-25T10:17:32;5.93;;;1.08;;
75316;SDS011;63913;51.492;10.368;2023-04-25T10:20:00;2.58;;;1.27;;
75316;SDS011;63913;51.492;10.368;2023-04-25T10:22:29;4.15;;;1.30;;
75316;SDS011;63913;51.492;10.368;2023-04-25T10:25:00;3.38;;;1.45;;
75316;SDS011;63913;51.492;10.368;2023-04-25T10:27:29;2.88;;;1.08;;
75316;SDS011;63913;51.492;10.368;2023-04-25T10:32:34;5.40;;;1.30;;
75316;SDS011;63913;51.492;10.368;2023-04-25T10:38:11;3.47;;;1.35;;
75316;SDS011;63913;51.492;10.368;2023-04-25T10:40:39;4.97;;;1.60;;
75316;SDS011;63913;51.492;10.368;2023-04-25T10:45:56;3.92;;;1.33;;
75316;SDS011;63913;51.492;10.368;2023-04-25T10:48:25;4.22;;;1.45;;
75316;SDS011;63913;51.492;10.368;2023-04-25T10:51:07;2.53;;;1.17;;
75316;SDS011;63913;51.492;10.368;2023-04-25T10:53:36;7.32;;;1.45;;
75316;SDS011;63913;51.492;10.368;2023-04-25T10:58:41;1.70;;;1.25;;
75316;SDS011;63913;51.492;10.368;2023-04-25T11:01:07;6.88;;;1.30;;
75316;SDS011;63913;51.492;10.368;2023-04-25T11:03:32;4.95;;;1.83;;
75316;SDS011;63913;51.492;10.368;2023-04-25T11:06:03;6.15;;;1.40;;
75316;SDS011;63913;51.492;10.368;2023-04-25T11:08:56;6.40;;;1.73;;
75316;SDS011;63913;51.492;10.368;2023-04-25T11:11:20;3.97;;;1.45;;
75316;SDS011;63913;51.492;10.368;2023-04-25T11:13:49;2.47;;;1.13;;
75316;SDS011;63913;51.492;10.368;2023-04-25T11:16:15;6.20;;;2.20;;
75316;SDS011;63913;51.492;10.368;2023-04-25T11:18:42;4.75;;;1.35;;
75316;SDS011;63913;51.492;10.368;2023-04-25T11:21:08;5.05;;;1.45;;
75316;SDS011;63913;51.492;10.368;2023-04-25T11:23:33;6.95;;;1.70;;
75316;SDS011;63913;51.492;10.368;2023-04-25T11:25:59;5.97;;;1.73;;
75316;SDS011;63913;51.492;10.368;2023-04-25T11:28:26;4.47;;;1.42;;
75316;SDS011;63913;51.492;10.368;2023-04-25T11:30:52;4.38;;;1.58;;
75316;SDS011;63913;51.492;10.368;2023-04-25T11:33:18;3.33;;;1.38;;
75316;SDS011;63913;51.492;10.368;2023-04-25T11:35:49;2.35;;;1.20;;
75316;SDS011;63913;51.492;10.368;2023-04-25T11:38:14;3.25;;;1.20;;
75316;SDS011;63913;51.492;10.368;2023-04-25T11:40:40;4.20;;;1.45;;
75316;SDS011;63913;51.492;10.368;2023-04-25T11:43:06;4.57;;;1.00;;
75316;SDS011;63913;51.492;10.368;2023-04-25T11:45:32;5.40;;;1.20;;
75316;SDS011;63913;51.492;10.368;2023-04-25T11:47:58;2.17;;;1.25;;
75316;SDS011;63913;51.492;10.368;2023-04-25T11:50:23;3.25;;;1.27;;
75316;SDS011;63913;51.492;10.368;2023-04-25T11:52:48;7.40;;;1.60;;
75316;SDS011;63913;51.492;10.368;2023-04-25T11:55:15;5.65;;;1.20;;
75316;SDS011;63913;51.492;10.368;2023-04-25T11:57:43;5.53;;;1.25;;
75316;SDS011;63913;51.492;10.368;2023-04-25T12:00:14;1.30;;;1.10;;
75316;SDS011;63913;51.492;10.368;2023-04-25T12:02:43;3.70;;;1.20;;
75316;SDS011;63913;51.492;10.368;2023-04-25T12:05:10;4.45;;;1.30;;
75316;SDS011;63913;51.492;10.368;2023-04-25T12:07:37;4.55;;;1.38;;
75316;SDS011;63913;51.492;10.368;2023-04-25T12:12:35;2.63;;;1.55;;
75316;SDS011;63913;51.492;10.368;2023-04-25T12:15:11;0.95;;;0.80;;
75316;SDS011;63913;51.492;10.368;2023-04-25T12:17:41;5.80;;;1.08;;
75316;SDS011;63913;51.492;10.368;2023-04-25T12:20:10;5.30;;;1.40;;
75316;SDS011;63913;51.492;10.368;2023-04-25T12:22:40;2.97;;;1.15;;
75316;SDS011;63913;51.492;10.368;2023-04-25T12:25:09;3.72;;;1.40;;
75316;SDS011;63913;51.492;10.368;2023-04-25T12:27:35;3.70;;;1.25;;
75316;SDS011;63913;51.492;10.368;2023-04-25T12:30:01;4.40;;;1.40;;
75316;SDS011;63913;51.492;10.368;2023-04-25T12:32:28;2.33;;;1.13;;
75316;SDS011;63913;51.492;10.368;2023-04-25T12:34:54;3.42;;;1.45;;
75316;SDS011;63913;51.492;10.368;2023-04-25T12:37:20;2.88;;;1.40;;
75316;SDS011;63913;51.492;10.368;2023-04-25T12:39:45;3.97;;;1.30;;
75316;SDS011;63913;51.492;10.368;2023-04-25T12:42:11;5.47;;;1.60;;
75316;SDS011;63913;51.492;10.368;2023-04-25T12:44:37;4.47;;;2.17;;
75316;SDS011;63913;51.492;10.368;2023-04-25T12:47:03;4.40;;;1.25;;
75316;SDS011;63913;51.492;10.368;2023-04-25T12:49:29;2.33;;;1.27;;
75316;SDS011;63913;51.492;10.368;2023-04-25T12:51:54;1.77;;;1.13;;
75316;SDS011;63913;51.492;10.368;2023-04-25T12:54:19;3.90;;;1.25;;
75316;SDS011;63913;51.492;10.368;2023-04-25T12:56:45;3.55;;;1.40;;
75316;SDS011;63913;51.492;10.368;2023-04-25T12:59:11;3.38;;;1.10;;
75316;SDS011;63913;51.492;10.368;2023-04-25T13:01:36;2.83;;;1.42;;
75316;SDS011;63913;51.492;10.368;2023-04-25T13:04:02;3.67;;;1.30;;
75316;SDS011;63913;51.492;10.368;2023-04-25T13:06:27;6.07;;;1.42;;
75316;SDS011;63913;51.492;10.368;2023-04-25T13:08:55;9.13;;;1.58;;
75316;SDS011;63913;51.492;10.368;2023-04-25T13:11:20;3.80;;;1.17;;
75316;SDS011;63913;51.492;10.368;2023-04-25T13:13:45;3.13;;;1.23;;
75316;SDS011;63913;51.492;10.368;2023-04-25T13:16:11;4.10;;;1.33;;
75316;SDS011;63913;51.492;10.368;2023-04-25T13:18:38;3.17;;;1.27;;
75316;SDS011;63913;51.492;10.368;2023-04-25T13:21:04;2.95;;;1.38;;
75316;SDS011;63913;51.492;10.368;2023-04-25T13:23:30;3.80;;;1.50;;
75316;SDS011;63913;51.492;10.368;2023-04-25T13:25:56;3.08;;;1.30;;
75316;SDS011;63913;51.492;10.368;2023-04-25T13:28:26;4.10;;;1.40;;
75316;SDS011;63913;51.492;10.368;2023-04-25T13:30:52;2.53;;;1.20;;
75316;SDS011;63913;51.492;10.368;2023-04-25T13:33:18;3.20;;;1.27;;
75316;SDS011;63913;51.492;10.368;2023-04-25T13:35:45;1.50;;;1.10;;
75316;SDS011;63913;51.492;10.368;2023-04-25T13:38:12;2.13;;;1.30;;
75316;SDS011;63913;51.492;10.368;2023-04-25T13:40:38;3.72;;;0.98;;
75316;SDS011;63913;51.492;10.368;2023-04-25T13:43:03;13.00;;;3.15;;
75316;SDS011;63913;51.492;10.368;2023-04-25T13:45:29;3.65;;;1.60;;
75316;SDS011;63913;51.492;10.368;2023-04-25T13:47:54;3.80;;;1.08;;
75316;SDS011;63913;51.492;10.368;2023-04-25T13:50:20;5.13;;;1.70;;
75316;SDS011;63913;51.492;10.368;2023-04-25T13:52:46;3.15;;;1.83;;
75316;SDS011;63913;51.492;10.368;2023-04-25T13:55:11;3.60;;;1.30;;
75316;SDS011;63913;51.492;10.368;2023-04-25T13:57:37;4.65;;;1.45;;
75316;SDS011;63913;51.492;10.368;2023-04-25T14:00:02;4.10;;;1.40;;
75316;SDS011;63913;51.492;10.368;2023-04-25T14:02:37;4.65;;;1.40;;
75316;SDS011;63913;51.492;10.368;2023-04-25T14:05:03;2.15;;;1.45;;
75316;SDS011;63913;51.492;10.368;2023-04-25T14:07:29;3.22;;;1.20;;
75316;SDS011;63913;51.492;10.368;2023-04-25T14:09:55;3.10;;;1.42;;
75316;SDS011;63913;51.492;10.368;2023-04-25T14:12:22;5.22;;;1.65;;
75316;SDS011;63913;51.492;10.368;2023-04-25T14:14:48;5.13;;;2.10;;
75316;SDS011;63913;51.492;10.368;2023-04-25T14:17:13;2.90;;;1.42;;
75316;SDS011;63913;51.492;10.368;2023-04-25T14:19:38;3.67;;;1.55;;
75316;SDS011;63913;51.492;10.368;2023-04-25T14:22:08;3.45;;;1.10;;
75316;SDS011;63913;51.492;10.368;2023-04-25T14:24:34;4.03;;;1.02;;
75316;SDS011;63913;51.492;10.368;2023-04-25T14:26:59;2.42;;;1.25;;
75316;SDS011;63913;51.492;10.368;2023-04-25T14:29:25;2.47;;;1.27;;
75316;SDS011;63913;51.492;10.368;2023-04-25T14:31:51;4.80;;;0.90;;
75316;SDS011;63913;51.492;10.368;2023-04-25T14:34:16;3.45;;;1.13;;
75316;SDS011;63913;51.492;10.368;2023-04-25T14:36:42;4.72;;;1.20;;
75316;SDS011;63913;51.492;10.368;2023-04-25T14:39:07;5.32;;;1.02;;
75316;SDS011;63913;51.492;10.368;2023-04-25T14:41:33;3.33;;;1.30;;
75316;SDS011;63913;51.492;10.368;2023-04-25T14:43:59;3.15;;;1.27;;
75316;SDS011;63913;51.492;10.368;2023-04-25T14:46:24;2.45;;;1.08;;
75316;SDS011;63913;51.492;10.368;2023-04-25T14:48:50;2.60;;;1.20;;
75316;SDS011;63913;51.492;10.368;2023-04-25T14:51:16;1.92;;;1.10;;
75316;SDS011;63913;51.492;10.368;2023-04-25T14:53:41;3.55;;;1.02;;
75316;SDS011;63913;51.492;10.368;2023-04-25T14:56:07;2.97;;;1.10;;
75316;SDS011;63913;51.492;10.368;2023-04-25T14:58:33;3.38;;;1.40;;
75316;SDS011;63913;51.492;10.368;2023-04-25T15:00:59;1.88;;;1.30;;